sensor_id;sensor_type;location;lat;lon;timestamp;P1;durP1;ratioP1;P2;durP2;ratioP2
53751;SDS011;41095;53.090;6.692;2023-08-24T00:00:51;5.72;;;3.28;;
53751;SDS011;41095;53.090;6.692;2023-08-24T00:03:16;4.43;;;2.67;;
53751;SDS011;41095;53.090;6.692;2023-08-24T00:05:42;5.53;;;3.40;;
53751;SDS011;41095;53.090;6.692;2023-08-24T00:08:08;10.30;;;3.33;;
53751;SDS011;41095;53.090;6.692;2023-08-24T00:10:36;3.92;;;3.47;;
53751;SDS011;41095;53.090;6.692;2023-08-24T00:13:03;4.82;;;3.55;;
53751;SDS011;41095;53.090;6.692;2023-08-24T00:15:29;3.42;;;2.72;;
53751;SDS011;41095;53.090;6.692;2023-08-24T00:17:55;3.30;;;2.80;;
53751;SDS011;41095;53.090;6.692;2023-08-24T00:20:21;3.35;;;2.38;;
53751;SDS011;41095;53.090;6.692;2023-08-24T00:22:48;4.00;;;3.08;;
53751;SDS011;41095;53.090;6.692;2023-08-24T00:25:14;3.33;;;2.95;;
53751;SDS011;41095;53.090;6.692;2023-08-24T00:27:40;3.05;;;2.83;;
53751;SDS011;41095;53.090;6.692;2023-08-24T00:30:06;7.70;;;3.15;;
53751;SDS011;41095;53.090;6.692;2023-08-24T00:32:33;4.43;;;3.55;;
53751;SDS011;41095;53.090;6.692;2023-08-24T00:35:00;3.80;;;3.38;;
53751;SDS011;41095;53.090;6.692;2023-08-24T00:37:26;3.08;;;2.63;;
53751;SDS011;41095;53.090;6.692;2023-08-24T00:39:53;5.00;;;3.60;;
53751;SDS011;41095;53.090;6.692;2023-08-24T00:42:20;4.05;;;3.40;;
53751;SDS011;41095;53.090;6.692;2023-08-24T00:44:47;4.13;;;2.95;;
53751;SDS011;41095;53.090;6.692;2023-08-24T00:47:13;3.75;;;3.33;;
53751;SDS011;41095;53.090;6.692;2023-08-24T00:49:40;3.78;;;2.85;;
53751;SDS011;41095;53.090;6.692;2023-08-24T00:52:06;4.28;;;3.25;;
53751;SDS011;41095;53.090;6.692;2023-08-24T00:54:32;4.25;;;2.95;;
53751;SDS011;41095;53.090;6.692;2023-08-24T00:56:59;6.22;;;3.35;;
53751;SDS011;41095;53.090;6.692;2023-08-24T00:59:25;3.53;;;2.67;;
53751;SDS011;41095;53.090;6.692;2023-08-24T01:01:51;5.10;;;3.22;;
53751;SDS011;41095;53.090;6.692;2023-08-24T01:04:17;3.50;;;3.03;;
53751;SDS011;41095;53.090;6.692;2023-08-24T01:06:43;5.00;;;3.28;;
53751;SDS011;41095;53.090;6.692;2023-08-24T01:09:09;5.05;;;3.67;;
53751;SDS011;41095;53.090;6.692;2023-08-24T01:16:39;4.18;;;2.72;;
53751;SDS011;41095;53.090;6.692;2023-08-24T01:22:54;5.55;;;3.20;;
53751;SDS011;41095;53.090;6.692;2023-08-24T01:27:46;3.40;;;2.70;;
53751;SDS011;41095;53.090;6.692;2023-08-24T01:30:13;3.03;;;2.78;;
53751;SDS011;41095;53.090;6.692;2023-08-24T01:32:40;4.70;;;2.97;;
53751;SDS011;41095;53.090;6.692;2023-08-24T01:35:06;3.95;;;3.55;;
53751;SDS011;41095;53.090;6.692;2023-08-24T01:37:34;4.55;;;3.97;;
53751;SDS011;41095;53.090;6.692;2023-08-24T01:45:15;5.97;;;3.65;;
53751;SDS011;41095;53.090;6.692;2023-08-24T01:47:43;4.05;;;3.20;;
53751;SDS011;41095;53.090;6.692;2023-08-24T01:50:12;4.47;;;3.90;;
53751;SDS011;41095;53.090;6.692;2023-08-24T01:52:38;6.82;;;3.63;;
53751;SDS011;41095;53.090;6.692;2023-08-24T01:55:05;4.97;;;3.63;;
53751;SDS011;41095;53.090;6.692;2023-08-24T01:57:31;3.40;;;3.08;;
53751;SDS011;41095;53.090;6.692;2023-08-24T01:59:57;3.50;;;3.20;;
53751;SDS011;41095;53.090;6.692;2023-08-24T02:02:23;3.60;;;3.30;;
53751;SDS011;41095;53.090;6.692;2023-08-24T02:04:49;4.00;;;3.50;;
53751;SDS011;41095;53.090;6.692;2023-08-24T02:07:15;6.22;;;3.42;;
53751;SDS011;41095;53.090;6.692;2023-08-24T02:09:41;3.75;;;2.90;;
53751;SDS011;41095;53.090;6.692;2023-08-24T02:12:06;4.20;;;3.20;;
53751;SDS011;41095;53.090;6.692;2023-08-24T02:14:32;5.35;;;3.42;;
53751;SDS011;41095;53.090;6.692;2023-08-24T02:16:58;6.68;;;3.58;;
53751;SDS011;41095;53.090;6.692;2023-08-24T02:19:24;4.93;;;4.40;;
53751;SDS011;41095;53.090;6.692;2023-08-24T02:21:49;5.35;;;4.55;;
53751;SDS011;41095;53.090;6.692;2023-08-24T02:24:15;4.50;;;4.10;;
53751;SDS011;41095;53.090;6.692;2023-08-24T02:26:41;6.45;;;3.95;;
53751;SDS011;41095;53.090;6.692;2023-08-24T02:29:07;5.22;;;4.65;;
53751;SDS011;41095;53.090;6.692;2023-08-24T02:31:32;6.07;;;4.93;;
53751;SDS011;41095;53.090;6.692;2023-08-24T02:33:58;9.43;;;7.07;;
53751;SDS011;41095;53.090;6.692;2023-08-24T02:36:24;9.05;;;4.63;;
53751;SDS011;41095;53.090;6.692;2023-08-24T02:38:49;6.43;;;4.57;;
53751;SDS011;41095;53.090;6.692;2023-08-24T02:41:15;5.35;;;4.63;;
53751;SDS011;41095;53.090;6.692;2023-08-24T02:43:41;5.65;;;4.95;;
53751;SDS011;41095;53.090;6.692;2023-08-24T02:46:07;6.47;;;3.70;;
53751;SDS011;41095;53.090;6.692;2023-08-24T02:48:34;4.03;;;3.58;;
53751;SDS011;41095;53.090;6.692;2023-08-24T02:51:01;6.90;;;4.57;;
53751;SDS011;41095;53.090;6.692;2023-08-24T02:53:28;5.22;;;3.90;;
53751;SDS011;41095;53.090;6.692;2023-08-24T02:55:57;6.78;;;5.00;;
53751;SDS011;41095;53.090;6.692;2023-08-24T02:58:23;5.18;;;4.70;;
53751;SDS011;41095;53.090;6.692;2023-08-24T03:00:49;7.15;;;5.97;;
53751;SDS011;41095;53.090;6.692;2023-08-24T03:03:15;7.20;;;5.57;;
53751;SDS011;41095;53.090;6.692;2023-08-24T03:05:41;6.93;;;5.28;;
53751;SDS011;41095;53.090;6.692;2023-08-24T03:08:20;6.35;;;4.95;;
53751;SDS011;41095;53.090;6.692;2023-08-24T03:10:45;4.65;;;4.25;;
53751;SDS011;41095;53.090;6.692;2023-08-24T03:13:13;5.82;;;4.90;;
53751;SDS011;41095;53.090;6.692;2023-08-24T03:15:39;5.13;;;4.63;;
53751;SDS011;41095;53.090;6.692;2023-08-24T03:18:04;4.80;;;4.30;;
53751;SDS011;41095;53.090;6.692;2023-08-24T03:20:30;5.22;;;4.72;;
53751;SDS011;41095;53.090;6.692;2023-08-24T03:22:56;5.88;;;5.28;;
53751;SDS011;41095;53.090;6.692;2023-08-24T03:25:22;5.75;;;5.25;;
53751;SDS011;41095;53.090;6.692;2023-08-24T03:27:48;6.78;;;4.97;;
53751;SDS011;41095;53.090;6.692;2023-08-24T03:30:14;7.68;;;4.80;;
53751;SDS011;41095;53.090;6.692;2023-08-24T03:32:40;7.00;;;5.38;;
53751;SDS011;41095;53.090;6.692;2023-08-24T03:35:06;5.90;;;4.72;;
53751;SDS011;41095;53.090;6.692;2023-08-24T03:37:32;4.78;;;4.32;;
53751;SDS011;41095;53.090;6.692;2023-08-24T03:39:58;4.68;;;4.28;;
53751;SDS011;41095;53.090;6.692;2023-08-24T03:42:24;5.28;;;4.10;;
53751;SDS011;41095;53.090;6.692;2023-08-24T03:44:50;4.97;;;4.28;;
53751;SDS011;41095;53.090;6.692;2023-08-24T03:47:15;4.53;;;4.13;;
53751;SDS011;41095;53.090;6.692;2023-08-24T03:49:44;6.80;;;5.43;;
53751;SDS011;41095;53.090;6.692;2023-08-24T03:52:10;5.13;;;4.57;;
53751;SDS011;41095;53.090;6.692;2023-08-24T03:54:35;6.82;;;5.32;;
53751;SDS011;41095;53.090;6.692;2023-08-24T03:57:01;6.00;;;4.65;;
53751;SDS011;41095;53.090;6.692;2023-08-24T03:59:27;6.35;;;5.63;;
53751;SDS011;41095;53.090;6.692;2023-08-24T04:01:53;5.53;;;5.03;;
53751;SDS011;41095;53.090;6.692;2023-08-24T04:04:19;6.20;;;5.28;;
53751;SDS011;41095;53.090;6.692;2023-08-24T04:06:45;6.40;;;5.53;;
53751;SDS011;41095;53.090;6.692;2023-08-24T04:09:10;8.73;;;6.65;;
53751;SDS011;41095;53.090;6.692;2023-08-24T04:11:36;6.90;;;5.90;;
53751;SDS011;41095;53.090;6.692;2023-08-24T04:14:02;9.27;;;7.75;;
53751;SDS011;41095;53.090;6.692;2023-08-24T04:16:27;7.15;;;6.32;;
53751;SDS011;41095;53.090;6.692;2023-08-24T04:18:53;6.43;;;5.60;;
53751;SDS011;41095;53.090;6.692;2023-08-24T04:21:19;6.15;;;5.55;;
53751;SDS011;41095;53.090;6.692;2023-08-24T04:23:44;8.35;;;6.93;;
53751;SDS011;41095;53.090;6.692;2023-08-24T04:26:13;8.10;;;6.63;;
53751;SDS011;41095;53.090;6.692;2023-08-24T04:28:39;6.00;;;5.47;;
53751;SDS011;41095;53.090;6.692;2023-08-24T04:31:05;6.22;;;5.20;;
53751;SDS011;41095;53.090;6.692;2023-08-24T04:33:30;6.05;;;5.18;;
53751;SDS011;41095;53.090;6.692;2023-08-24T04:35:56;7.40;;;6.28;;
53751;SDS011;41095;53.090;6.692;2023-08-24T04:38:23;6.93;;;4.70;;
53751;SDS011;41095;53.090;6.692;2023-08-24T04:40:50;9.43;;;7.13;;
53751;SDS011;41095;53.090;6.692;2023-08-24T04:43:17;13.32;;;8.38;;
53751;SDS011;41095;53.090;6.692;2023-08-24T04:45:45;11.15;;;9.88;;
53751;SDS011;41095;53.090;6.692;2023-08-24T04:48:12;7.57;;;6.65;;
53751;SDS011;41095;53.090;6.692;2023-08-24T04:50:38;8.52;;;6.70;;
53751;SDS011;41095;53.090;6.692;2023-08-24T04:53:04;10.13;;;7.15;;
53751;SDS011;41095;53.090;6.692;2023-08-24T04:55:31;10.60;;;6.68;;
53751;SDS011;41095;53.090;6.692;2023-08-24T04:57:56;18.08;;;8.45;;
53751;SDS011;41095;53.090;6.692;2023-08-24T05:00:22;12.23;;;7.07;;
53751;SDS011;41095;53.090;6.692;2023-08-24T05:02:48;11.23;;;6.10;;
53751;SDS011;41095;53.090;6.692;2023-08-24T05:05:13;7.28;;;5.90;;
53751;SDS011;41095;53.090;6.692;2023-08-24T05:07:39;5.30;;;4.80;;
53751;SDS011;41095;53.090;6.692;2023-08-24T05:10:06;7.80;;;6.95;;
53751;SDS011;41095;53.090;6.692;2023-08-24T05:12:33;6.38;;;5.70;;
53751;SDS011;41095;53.090;6.692;2023-08-24T05:15:02;5.90;;;4.47;;
53751;SDS011;41095;53.090;6.692;2023-08-24T05:17:28;5.93;;;4.75;;
53751;SDS011;41095;53.090;6.692;2023-08-24T05:19:54;5.18;;;4.68;;
53751;SDS011;41095;53.090;6.692;2023-08-24T05:22:20;4.90;;;4.40;;
53751;SDS011;41095;53.090;6.692;2023-08-24T05:24:46;5.47;;;4.97;;
53751;SDS011;41095;53.090;6.692;2023-08-24T05:27:11;5.53;;;4.95;;
53751;SDS011;41095;53.090;6.692;2023-08-24T05:29:37;7.00;;;6.10;;
53751;SDS011;41095;53.090;6.692;2023-08-24T05:32:03;6.63;;;6.00;;
53751;SDS011;41095;53.090;6.692;2023-08-24T05:34:29;7.78;;;6.97;;
53751;SDS011;41095;53.090;6.692;2023-08-24T05:36:54;10.00;;;6.43;;
53751;SDS011;41095;53.090;6.692;2023-08-24T05:39:20;5.22;;;4.68;;
53751;SDS011;41095;53.090;6.692;2023-08-24T05:41:46;9.32;;;7.63;;
53751;SDS011;41095;53.090;6.692;2023-08-24T05:44:15;8.35;;;6.85;;
53751;SDS011;41095;53.090;6.692;2023-08-24T05:46:42;12.73;;;8.68;;
53751;SDS011;41095;53.090;6.692;2023-08-24T05:49:07;10.85;;;8.35;;
53751;SDS011;41095;53.090;6.692;2023-08-24T05:51:34;10.27;;;7.63;;
53751;SDS011;41095;53.090;6.692;2023-08-24T05:54:00;10.90;;;9.25;;
53751;SDS011;41095;53.090;6.692;2023-08-24T05:56:26;15.38;;;10.15;;
53751;SDS011;41095;53.090;6.692;2023-08-24T05:58:51;14.65;;;11.88;;
53751;SDS011;41095;53.090;6.692;2023-08-24T06:01:17;21.63;;;16.92;;
53751;SDS011;41095;53.090;6.692;2023-08-24T06:03:43;21.40;;;16.70;;
53751;SDS011;41095;53.090;6.692;2023-08-24T06:06:08;22.52;;;17.13;;
53751;SDS011;41095;53.090;6.692;2023-08-24T06:08:35;24.88;;;20.23;;
53751;SDS011;41095;53.090;6.692;2023-08-24T06:11:00;28.20;;;23.38;;
53751;SDS011;41095;53.090;6.692;2023-08-24T06:13:27;25.02;;;20.35;;
53751;SDS011;41095;53.090;6.692;2023-08-24T06:15:53;27.27;;;20.67;;
53751;SDS011;41095;53.090;6.692;2023-08-24T06:18:19;24.58;;;20.52;;
53751;SDS011;41095;53.090;6.692;2023-08-24T06:20:45;23.48;;;17.67;;
53751;SDS011;41095;53.090;6.692;2023-08-24T06:23:14;16.92;;;13.48;;
53751;SDS011;41095;53.090;6.692;2023-08-24T06:25:41;19.60;;;13.13;;
53751;SDS011;41095;53.090;6.692;2023-08-24T06:28:06;11.90;;;10.23;;
53751;SDS011;41095;53.090;6.692;2023-08-24T06:30:36;10.07;;;7.93;;
53751;SDS011;41095;53.090;6.692;2023-08-24T06:33:04;9.77;;;7.75;;
53751;SDS011;41095;53.090;6.692;2023-08-24T06:35:30;10.52;;;7.70;;
53751;SDS011;41095;53.090;6.692;2023-08-24T06:37:56;12.88;;;8.27;;
53751;SDS011;41095;53.090;6.692;2023-08-24T06:40:21;9.23;;;7.72;;
53751;SDS011;41095;53.090;6.692;2023-08-24T06:42:47;9.88;;;7.93;;
53751;SDS011;41095;53.090;6.692;2023-08-24T06:45:13;8.57;;;6.82;;
53751;SDS011;41095;53.090;6.692;2023-08-24T06:47:39;11.15;;;7.70;;
53751;SDS011;41095;53.090;6.692;2023-08-24T06:50:05;8.80;;;7.00;;
53751;SDS011;41095;53.090;6.692;2023-08-24T06:52:31;7.85;;;6.78;;
53751;SDS011;41095;53.090;6.692;2023-08-24T06:54:57;7.38;;;6.68;;
53751;SDS011;41095;53.090;6.692;2023-08-24T06:57:24;10.25;;;6.28;;
53751;SDS011;41095;53.090;6.692;2023-08-24T06:59:50;10.70;;;6.63;;
53751;SDS011;41095;53.090;6.692;2023-08-24T07:02:16;9.20;;;5.95;;
53751;SDS011;41095;53.090;6.692;2023-08-24T07:04:43;9.93;;;6.13;;
53751;SDS011;41095;53.090;6.692;2023-08-24T07:07:08;9.10;;;6.38;;
53751;SDS011;41095;53.090;6.692;2023-08-24T07:09:34;6.47;;;5.38;;
53751;SDS011;41095;53.090;6.692;2023-08-24T07:12:01;6.15;;;5.45;;
53751;SDS011;41095;53.090;6.692;2023-08-24T07:14:27;6.90;;;5.35;;
53751;SDS011;41095;53.090;6.692;2023-08-24T07:16:53;6.68;;;4.55;;
53751;SDS011;41095;53.090;6.692;2023-08-24T07:19:18;10.30;;;5.45;;
53751;SDS011;41095;53.090;6.692;2023-08-24T07:21:44;6.70;;;5.25;;
53751;SDS011;41095;53.090;6.692;2023-08-24T07:24:10;7.85;;;5.10;;
53751;SDS011;41095;53.090;6.692;2023-08-24T07:26:36;7.32;;;5.20;;
53751;SDS011;41095;53.090;6.692;2023-08-24T07:29:02;9.40;;;5.03;;
53751;SDS011;41095;53.090;6.692;2023-08-24T07:31:27;11.52;;;5.45;;
53751;SDS011;41095;53.090;6.692;2023-08-24T07:33:53;9.00;;;5.30;;
53751;SDS011;41095;53.090;6.692;2023-08-24T07:36:19;7.75;;;4.85;;
53751;SDS011;41095;53.090;6.692;2023-08-24T07:38:45;7.95;;;5.28;;
53751;SDS011;41095;53.090;6.692;2023-08-24T07:41:14;8.68;;;5.60;;
53751;SDS011;41095;53.090;6.692;2023-08-24T07:43:42;8.25;;;5.55;;
53751;SDS011;41095;53.090;6.692;2023-08-24T07:46:08;5.80;;;4.90;;
53751;SDS011;41095;53.090;6.692;2023-08-24T07:48:34;10.35;;;5.95;;
53751;SDS011;41095;53.090;6.692;2023-08-24T07:51:00;6.95;;;4.93;;
53751;SDS011;41095;53.090;6.692;2023-08-24T07:53:26;11.10;;;5.82;;
53751;SDS011;41095;53.090;6.692;2023-08-24T07:55:53;10.10;;;5.32;;
53751;SDS011;41095;53.090;6.692;2023-08-24T07:58:19;6.55;;;5.38;;
53751;SDS011;41095;53.090;6.692;2023-08-24T08:00:48;9.52;;;5.85;;
53751;SDS011;41095;53.090;6.692;2023-08-24T08:03:16;8.32;;;4.70;;
53751;SDS011;41095;53.090;6.692;2023-08-24T08:05:42;8.25;;;4.78;;
53751;SDS011;41095;53.090;6.692;2023-08-24T08:08:08;7.55;;;5.15;;
53751;SDS011;41095;53.090;6.692;2023-08-24T08:10:33;10.15;;;6.32;;
53751;SDS011;41095;53.090;6.692;2023-08-24T08:12:59;7.45;;;4.78;;
53751;SDS011;41095;53.090;6.692;2023-08-24T08:15:25;6.18;;;4.65;;
53751;SDS011;41095;53.090;6.692;2023-08-24T08:17:50;9.70;;;5.43;;
53751;SDS011;41095;53.090;6.692;2023-08-24T08:20:16;9.18;;;5.15;;
53751;SDS011;41095;53.090;6.692;2023-08-24T08:22:42;6.68;;;4.40;;
53751;SDS011;41095;53.090;6.692;2023-08-24T08:25:08;4.05;;;3.63;;
53751;SDS011;41095;53.090;6.692;2023-08-24T08:27:33;6.05;;;4.13;;
53751;SDS011;41095;53.090;6.692;2023-08-24T08:29:59;6.82;;;3.90;;
53751;SDS011;41095;53.090;6.692;2023-08-24T08:32:25;4.53;;;4.13;;
53751;SDS011;41095;53.090;6.692;2023-08-24T08:34:53;7.53;;;4.47;;
53751;SDS011;41095;53.090;6.692;2023-08-24T08:37:22;6.97;;;4.45;;
53751;SDS011;41095;53.090;6.692;2023-08-24T08:39:47;7.50;;;4.43;;
53751;SDS011;41095;53.090;6.692;2023-08-24T08:42:13;6.93;;;4.95;;
53751;SDS011;41095;53.090;6.692;2023-08-24T08:44:39;6.90;;;4.80;;
53751;SDS011;41095;53.090;6.692;2023-08-24T08:47:08;4.45;;;4.03;;
53751;SDS011;41095;53.090;6.692;2023-08-24T08:49:36;6.78;;;4.63;;
53751;SDS011;41095;53.090;6.692;2023-08-24T08:52:04;9.70;;;4.70;;
53751;SDS011;41095;53.090;6.692;2023-08-24T08:54:30;6.18;;;5.05;;
53751;SDS011;41095;53.090;6.692;2023-08-24T08:56:58;9.52;;;4.90;;
53751;SDS011;41095;53.090;6.692;2023-08-24T08:59:24;9.50;;;5.22;;
53751;SDS011;41095;53.090;6.692;2023-08-24T09:01:54;6.03;;;4.90;;
53751;SDS011;41095;53.090;6.692;2023-08-24T09:04:26;10.00;;;5.18;;
53751;SDS011;41095;53.090;6.692;2023-08-24T09:06:56;5.07;;;4.57;;
53751;SDS011;41095;53.090;6.692;2023-08-24T09:09:22;7.07;;;5.82;;
53751;SDS011;41095;53.090;6.692;2023-08-24T09:11:48;8.43;;;5.43;;
53751;SDS011;41095;53.090;6.692;2023-08-24T09:14:14;5.88;;;5.22;;
53751;SDS011;41095;53.090;6.692;2023-08-24T09:16:40;5.35;;;4.85;;
53751;SDS011;41095;53.090;6.692;2023-08-24T09:19:06;8.73;;;5.00;;
53751;SDS011;41095;53.090;6.692;2023-08-24T09:21:38;6.15;;;4.68;;
53751;SDS011;41095;53.090;6.692;2023-08-24T09:24:06;7.22;;;5.25;;
53751;SDS011;41095;53.090;6.692;2023-08-24T09:26:34;7.63;;;5.55;;
53751;SDS011;41095;53.090;6.692;2023-08-24T09:29:10;10.30;;;5.60;;
53751;SDS011;41095;53.090;6.692;2023-08-24T09:31:38;10.55;;;5.80;;
53751;SDS011;41095;53.090;6.692;2023-08-24T09:34:04;8.00;;;5.30;;
53751;SDS011;41095;53.090;6.692;2023-08-24T09:36:33;8.25;;;6.53;;
53751;SDS011;41095;53.090;6.692;2023-08-24T09:39:00;7.18;;;5.30;;
53751;SDS011;41095;53.090;6.692;2023-08-24T09:41:39;9.20;;;5.75;;
53751;SDS011;41095;53.090;6.692;2023-08-24T09:44:06;11.43;;;5.47;;
53751;SDS011;41095;53.090;6.692;2023-08-24T09:46:34;15.82;;;6.05;;
53751;SDS011;41095;53.090;6.692;2023-08-24T09:49:04;6.97;;;5.22;;
53751;SDS011;41095;53.090;6.692;2023-08-24T09:51:31;7.88;;;5.25;;
53751;SDS011;41095;53.090;6.692;2023-08-24T09:53:58;9.30;;;5.60;;
53751;SDS011;41095;53.090;6.692;2023-08-24T09:56:27;10.25;;;5.93;;
53751;SDS011;41095;53.090;6.692;2023-08-24T09:58:54;11.15;;;5.78;;
53751;SDS011;41095;53.090;6.692;2023-08-24T10:01:23;8.13;;;5.25;;
53751;SDS011;41095;53.090;6.692;2023-08-24T10:03:50;6.78;;;5.78;;
53751;SDS011;41095;53.090;6.692;2023-08-24T10:06:19;6.82;;;5.70;;
53751;SDS011;41095;53.090;6.692;2023-08-24T10:08:51;11.50;;;5.40;;
53751;SDS011;41095;53.090;6.692;2023-08-24T10:11:24;7.22;;;5.78;;
53751;SDS011;41095;53.090;6.692;2023-08-24T10:13:55;7.63;;;5.80;;
53751;SDS011;41095;53.090;6.692;2023-08-24T10:16:32;11.70;;;6.13;;
53751;SDS011;41095;53.090;6.692;2023-08-24T10:19:00;11.55;;;6.68;;
53751;SDS011;41095;53.090;6.692;2023-08-24T10:21:28;8.60;;;6.15;;
53751;SDS011;41095;53.090;6.692;2023-08-24T10:23:54;7.55;;;6.32;;
53751;SDS011;41095;53.090;6.692;2023-08-24T10:26:22;8.07;;;6.47;;
53751;SDS011;41095;53.090;6.692;2023-08-24T10:28:49;8.40;;;6.85;;
53751;SDS011;41095;53.090;6.692;2023-08-24T10:31:16;12.02;;;7.13;;
53751;SDS011;41095;53.090;6.692;2023-08-24T10:33:42;7.20;;;5.88;;
53751;SDS011;41095;53.090;6.692;2023-08-24T10:36:10;8.82;;;6.25;;
53751;SDS011;41095;53.090;6.692;2023-08-24T10:38:41;9.57;;;6.75;;
53751;SDS011;41095;53.090;6.692;2023-08-24T10:41:07;8.65;;;6.80;;
53751;SDS011;41095;53.090;6.692;2023-08-24T10:43:34;10.48;;;6.97;;
53751;SDS011;41095;53.090;6.692;2023-08-24T10:46:03;7.60;;;6.65;;
53751;SDS011;41095;53.090;6.692;2023-08-24T10:51:21;9.68;;;6.60;;
53751;SDS011;41095;53.090;6.692;2023-08-24T10:53:58;13.38;;;6.47;;
53751;SDS011;41095;53.090;6.692;2023-08-24T10:56:37;11.50;;;6.97;;
53751;SDS011;41095;53.090;6.692;2023-08-24T10:59:17;8.32;;;6.30;;
53751;SDS011;41095;53.090;6.692;2023-08-24T11:01:54;7.75;;;6.40;;
53751;SDS011;41095;53.090;6.692;2023-08-24T11:04:20;7.97;;;6.65;;
53751;SDS011;41095;53.090;6.692;2023-08-24T11:06:53;8.10;;;7.15;;
53751;SDS011;41095;53.090;6.692;2023-08-24T11:09:20;8.32;;;7.10;;
53751;SDS011;41095;53.090;6.692;2023-08-24T11:14:48;9.43;;;5.80;;
53751;SDS011;41095;53.090;6.692;2023-08-24T11:17:19;8.68;;;6.75;;
53751;SDS011;41095;53.090;6.692;2023-08-24T11:19:49;10.13;;;6.53;;
53751;SDS011;41095;53.090;6.692;2023-08-24T11:22:17;9.80;;;6.75;;
53751;SDS011;41095;53.090;6.692;2023-08-24T11:24:43;9.68;;;6.55;;
53751;SDS011;41095;53.090;6.692;2023-08-24T11:27:12;9.80;;;7.55;;
53751;SDS011;41095;53.090;6.692;2023-08-24T11:29:38;8.10;;;6.78;;
53751;SDS011;41095;53.090;6.692;2023-08-24T11:32:04;12.25;;;7.18;;
53751;SDS011;41095;53.090;6.692;2023-08-24T11:34:30;8.95;;;6.65;;
53751;SDS011;41095;53.090;6.692;2023-08-24T11:36:56;11.30;;;7.20;;
53751;SDS011;41095;53.090;6.692;2023-08-24T11:39:22;8.48;;;7.25;;
53751;SDS011;41095;53.090;6.692;2023-08-24T11:44:29;10.02;;;7.25;;
53751;SDS011;41095;53.090;6.692;2023-08-24T11:46:58;10.57;;;8.05;;
53751;SDS011;41095;53.090;6.692;2023-08-24T11:49:24;9.75;;;7.45;;
53751;SDS011;41095;53.090;6.692;2023-08-24T11:51:50;9.93;;;7.70;;
53751;SDS011;41095;53.090;6.692;2023-08-24T11:54:18;11.18;;;7.72;;
53751;SDS011;41095;53.090;6.692;2023-08-24T11:56:44;9.63;;;8.52;;
53751;SDS011;41095;53.090;6.692;2023-08-24T11:59:14;12.18;;;7.50;;
53751;SDS011;41095;53.090;6.692;2023-08-24T12:01:41;7.07;;;6.35;;
53751;SDS011;41095;53.090;6.692;2023-08-24T12:04:08;9.20;;;7.28;;
53751;SDS011;41095;53.090;6.692;2023-08-24T12:06:34;11.88;;;7.40;;
53751;SDS011;41095;53.090;6.692;2023-08-24T12:09:00;9.02;;;7.13;;
53751;SDS011;41095;53.090;6.692;2023-08-24T12:11:28;8.82;;;7.78;;
53751;SDS011;41095;53.090;6.692;2023-08-24T12:13:54;10.60;;;7.65;;
53751;SDS011;41095;53.090;6.692;2023-08-24T12:16:21;10.95;;;7.75;;
53751;SDS011;41095;53.090;6.692;2023-08-24T12:18:52;10.38;;;6.80;;
53751;SDS011;41095;53.090;6.692;2023-08-24T12:21:21;10.43;;;7.57;;
53751;SDS011;41095;53.090;6.692;2023-08-24T12:24:01;7.72;;;7.00;;
53751;SDS011;41095;53.090;6.692;2023-08-24T12:29:01;10.68;;;6.22;;
53751;SDS011;41095;53.090;6.692;2023-08-24T12:31:30;7.65;;;6.40;;
53751;SDS011;41095;53.090;6.692;2023-08-24T12:34:00;9.20;;;6.32;;
53751;SDS011;41095;53.090;6.692;2023-08-24T12:36:28;10.03;;;7.63;;
53751;SDS011;41095;53.090;6.692;2023-08-24T12:38:54;8.27;;;7.10;;
53751;SDS011;41095;53.090;6.692;2023-08-24T12:41:20;11.57;;;7.93;;
53751;SDS011;41095;53.090;6.692;2023-08-24T12:43:45;10.90;;;8.07;;
53751;SDS011;41095;53.090;6.692;2023-08-24T12:46:11;9.82;;;7.32;;
53751;SDS011;41095;53.090;6.692;2023-08-24T12:48:37;9.30;;;7.32;;
53751;SDS011;41095;53.090;6.692;2023-08-24T12:51:03;9.00;;;7.97;;
53751;SDS011;41095;53.090;6.692;2023-08-24T12:53:28;12.43;;;7.60;;
53751;SDS011;41095;53.090;6.692;2023-08-24T12:55:54;9.75;;;8.05;;
53751;SDS011;41095;53.090;6.692;2023-08-24T12:58:19;12.05;;;8.55;;
53751;SDS011;41095;53.090;6.692;2023-08-24T13:00:45;11.02;;;7.53;;
53751;SDS011;41095;53.090;6.692;2023-08-24T13:03:12;9.45;;;8.50;;
53751;SDS011;41095;53.090;6.692;2023-08-24T13:05:37;9.30;;;7.90;;
53751;SDS011;41095;53.090;6.692;2023-08-24T13:08:03;12.68;;;9.02;;
53751;SDS011;41095;53.090;6.692;2023-08-24T13:10:29;9.85;;;8.57;;
53751;SDS011;41095;53.090;6.692;2023-08-24T13:12:55;11.32;;;8.32;;
53751;SDS011;41095;53.090;6.692;2023-08-24T13:15:24;10.57;;;7.63;;
53751;SDS011;41095;53.090;6.692;2023-08-24T13:17:54;9.43;;;8.43;;
53751;SDS011;41095;53.090;6.692;2023-08-24T13:20:20;9.55;;;8.45;;
53751;SDS011;41095;53.090;6.692;2023-08-24T13:22:45;10.38;;;7.97;;
53751;SDS011;41095;53.090;6.692;2023-08-24T13:25:11;9.63;;;8.73;;
53751;SDS011;41095;53.090;6.692;2023-08-24T13:27:37;11.82;;;8.20;;
53751;SDS011;41095;53.090;6.692;2023-08-24T13:30:03;10.95;;;8.43;;
53751;SDS011;41095;53.090;6.692;2023-08-24T13:32:29;8.82;;;7.82;;
53751;SDS011;41095;53.090;6.692;2023-08-24T13:34:55;9.43;;;7.20;;
53751;SDS011;41095;53.090;6.692;2023-08-24T13:37:21;10.73;;;8.60;;
53751;SDS011;41095;53.090;6.692;2023-08-24T13:39:47;11.73;;;8.55;;
53751;SDS011;41095;53.090;6.692;2023-08-24T13:42:12;16.52;;;7.22;;
53751;SDS011;41095;53.090;6.692;2023-08-24T13:44:38;10.48;;;7.47;;
53751;SDS011;41095;53.090;6.692;2023-08-24T13:47:04;9.13;;;7.13;;
53751;SDS011;41095;53.090;6.692;2023-08-24T13:49:30;12.43;;;8.15;;
53751;SDS011;41095;53.090;6.692;2023-08-24T13:51:56;9.70;;;8.07;;
53751;SDS011;41095;53.090;6.692;2023-08-24T13:54:22;10.93;;;7.70;;
53751;SDS011;41095;53.090;6.692;2023-08-24T13:56:47;11.98;;;8.48;;
53751;SDS011;41095;53.090;6.692;2023-08-24T13:59:14;10.38;;;8.20;;
53751;SDS011;41095;53.090;6.692;2023-08-24T14:01:40;11.85;;;7.45;;
53751;SDS011;41095;53.090;6.692;2023-08-24T14:04:07;13.25;;;8.82;;
53751;SDS011;41095;53.090;6.692;2023-08-24T14:06:33;10.20;;;7.88;;
53751;SDS011;41095;53.090;6.692;2023-08-24T14:09:00;9.88;;;7.30;;
53751;SDS011;41095;53.090;6.692;2023-08-24T14:11:27;10.48;;;7.28;;
53751;SDS011;41095;53.090;6.692;2023-08-24T14:13:53;11.77;;;8.20;;
53751;SDS011;41095;53.090;6.692;2023-08-24T14:16:19;8.82;;;8.00;;
53751;SDS011;41095;53.090;6.692;2023-08-24T14:18:45;11.50;;;9.30;;
53751;SDS011;41095;53.090;6.692;2023-08-24T14:21:12;19.15;;;9.13;;
53751;SDS011;41095;53.090;6.692;2023-08-24T14:23:38;8.40;;;7.60;;
53751;SDS011;41095;53.090;6.692;2023-08-24T14:26:04;9.35;;;8.45;;
53751;SDS011;41095;53.090;6.692;2023-08-24T14:28:47;9.90;;;8.88;;
53751;SDS011;41095;53.090;6.692;2023-08-24T14:31:20;11.77;;;8.13;;
53751;SDS011;41095;53.090;6.692;2023-08-24T14:33:47;8.95;;;7.25;;
53751;SDS011;41095;53.090;6.692;2023-08-24T14:36:13;8.60;;;7.70;;
53751;SDS011;41095;53.090;6.692;2023-08-24T14:38:39;7.53;;;6.82;;
53751;SDS011;41095;53.090;6.692;2023-08-24T14:41:05;13.02;;;8.35;;
53751;SDS011;41095;53.090;6.692;2023-08-24T14:43:32;10.73;;;7.85;;
53751;SDS011;41095;53.090;6.692;2023-08-24T14:45:58;10.23;;;8.25;;
53751;SDS011;41095;53.090;6.692;2023-08-24T14:48:24;9.65;;;8.40;;
53751;SDS011;41095;53.090;6.692;2023-08-24T14:50:49;8.27;;;7.47;;
53751;SDS011;41095;53.090;6.692;2023-08-24T14:53:15;7.85;;;7.03;;
53751;SDS011;41095;53.090;6.692;2023-08-24T14:55:41;8.02;;;7.13;;
53751;SDS011;41095;53.090;6.692;2023-08-24T14:58:07;7.68;;;6.90;;
53751;SDS011;41095;53.090;6.692;2023-08-24T15:00:33;12.45;;;6.70;;
53751;SDS011;41095;53.090;6.692;2023-08-24T15:02:59;10.77;;;8.23;;
53751;SDS011;41095;53.090;6.692;2023-08-24T15:05:25;8.93;;;7.43;;
53751;SDS011;41095;53.090;6.692;2023-08-24T15:07:51;10.45;;;9.35;;